createdAt,value
2023-02-19T00:01:38.921Z,98273.97
2023-02-19T00:04:15.282Z,98274.53
2023-02-19T00:06:41.822Z,98268.16
2023-02-19T00:09:12.582Z,98271.75
2023-02-19T00:11:39.120Z,98270.09
2023-02-19T00:14:06.005Z,98266.16
2023-02-19T00:16:37.104Z,98262.84
2023-02-19T00:19:05.203Z,98270.59
2023-02-19T00:21:31.813Z,98257.22
2023-02-19T00:23:59.987Z,98258.50
2023-02-19T00:26:26.798Z,98250.84
2023-02-19T00:28:55.321Z,98245.16
2023-02-19T00:31:21.959Z,98262.28
2023-02-19T00:33:48.966Z,98251.44
2023-02-19T00:36:15.674Z,98249.22
2023-02-19T00:38:42.489Z,98251.31
2023-02-19T00:41:21.339Z,98248.69
2023-02-19T00:43:55.083Z,98242.41
2023-02-19T00:46:25.984Z,98240.91
2023-02-19T00:48:52.632Z,98246.22
2023-02-19T00:51:20.212Z,98240.59
2023-02-19T00:53:46.717Z,98246.22
2023-02-19T00:56:13.202Z,98245.91
2023-02-19T00:58:39.726Z,98239.22
2023-02-19T01:01:06.602Z,98239.53
2023-02-19T01:03:35.906Z,98242.47
2023-02-19T01:06:02.555Z,98230.88
2023-02-19T01:08:30.945Z,98233.13
2023-02-19T01:10:57.930Z,98231.84
2023-02-19T01:13:24.594Z,98229.19
2023-02-19T01:15:51.213Z,98201.06
2023-02-19T01:18:17.819Z,98235.88
2023-02-19T01:20:44.482Z,98225.56
2023-02-19T01:23:11.712Z,98226.56
2023-02-19T01:25:39.532Z,98219.00
2023-02-19T01:28:06.210Z,98212.25
2023-02-19T01:30:36.371Z,98210.59
2023-02-19T01:33:07.116Z,98204.84
2023-02-19T01:35:33.728Z,98199.28
2023-02-19T01:38:00.382Z,98196.97
2023-02-19T01:40:27.080Z,98193.31
2023-02-19T01:42:53.542Z,98184.22
2023-02-19T01:45:25.491Z,98179.88
2023-02-19T01:47:58.446Z,98182.25
2023-02-19T01:50:26.712Z,98179.22
2023-02-19T01:52:53.177Z,98177.84
2023-02-19T01:55:19.657Z,98177.44
2023-02-19T01:57:47.015Z,98169.50
2023-02-19T02:00:14.713Z,98168.13
2023-02-19T02:02:42.283Z,98165.47
2023-02-19T02:05:45.569Z,98151.53
2023-02-19T02:08:31.145Z,98148.56
2023-02-19T02:10:57.778Z,98146.50
2023-02-19T02:13:24.250Z,98122.31
2023-02-19T02:16:15.681Z,98130.88
2023-02-19T02:18:58.260Z,98126.88
2023-02-19T02:21:47.705Z,98125.34
2023-02-19T02:24:25.429Z,98134.69
2023-02-19T02:27:00.967Z,98132.25
2023-02-19T02:29:55.855Z,98121.59
2023-02-19T02:32:25.988Z,98101.94
2023-02-19T02:35:01.355Z,98095.25
2023-02-19T02:37:28.416Z,98096.94
2023-02-19T02:39:54.924Z,98086.41
2023-02-19T02:42:30.082Z,98086.72
2023-02-19T02:45:16.070Z,98080.44
2023-02-19T02:47:45.056Z,98084.75
2023-02-19T02:50:18.572Z,98085.41
2023-02-19T02:53:03.787Z,98088.75
2023-02-19T02:55:31.388Z,98082.47
2023-02-19T02:57:57.853Z,98075.88
2023-02-19T03:00:24.473Z,98079.75
2023-02-19T03:02:50.944Z,98066.88
2023-02-19T03:05:39.106Z,98060.75
2023-02-19T03:08:10.933Z,98060.44
2023-02-19T03:10:48.775Z,98058.47
2023-02-19T03:13:54.409Z,98058.47
2023-02-19T03:16:42.955Z,98056.81
2023-02-19T03:19:19.253Z,98060.44
2023-02-19T03:22:12.000Z,98061.94
2023-02-19T03:25:00.830Z,98054.72
2023-02-19T03:27:28.795Z,98060.44
2023-02-19T03:29:56.317Z,98052.78
2023-02-19T03:32:30.182Z,98046.78
2023-02-19T03:35:01.820Z,98047.78
2023-02-19T03:37:49.738Z,98048.75
2023-02-19T03:40:16.292Z,98044.13
2023-02-19T03:42:48.825Z,98043.47
2023-02-19T03:45:38.679Z,98060.03
2023-02-19T03:48:28.426Z,98045.44
2023-02-19T03:51:21.250Z,98064.50
2023-02-19T03:53:53.650Z,98057.38
2023-02-19T03:56:34.051Z,98052.63
2023-02-19T03:59:03.800Z,98055.44
2023-02-19T04:01:36.493Z,98052.31
2023-02-19T04:04:07.179Z,98051.50
2023-02-19T04:06:33.637Z,98046.78
2023-02-19T04:09:01.944Z,98042.47
2023-02-19T04:11:28.947Z,98037.47
2023-02-19T04:13:56.931Z,98031.19
2023-02-19T04:16:27.244Z,98032.19
2023-02-19T04:18:54.959Z,98018.09
2023-02-19T04:21:21.877Z,98021.84
2023-02-19T04:23:48.563Z,98024.88
2023-02-19T04:26:15.118Z,98017.22
2023-02-19T04:28:42.966Z,98009.63
2023-02-19T04:31:10.050Z,98020.94
2023-02-19T04:33:37.226Z,98028.91
2023-02-19T04:36:03.929Z,98028.28
2023-02-19T04:38:30.549Z,98033.91
2023-02-19T04:40:57.262Z,98028.63
2023-02-19T04:43:23.794Z,98036.16
2023-02-19T04:45:50.297Z,98033.91
2023-02-19T04:48:16.822Z,98049.84
2023-02-19T04:50:43.347Z,98046.19
2023-02-19T04:53:09.939Z,98055.97
2023-02-19T04:55:37.965Z,98051.94
2023-02-19T04:58:04.629Z,98052.78
2023-02-19T05:00:31.848Z,98050.78
2023-02-19T05:02:58.355Z,98051.78
2023-02-19T05:05:24.860Z,98043.28
2023-02-19T05:07:51.400Z,98062.09
2023-02-19T05:10:17.913Z,98065.13
2023-02-19T05:12:44.406Z,98063.78
2023-02-19T05:15:10.948Z,98052.53
2023-02-19T05:17:37.778Z,98062.50
2023-02-19T05:20:04.456Z,98057.09
2023-02-19T05:22:30.997Z,98067.31
2023-02-19T05:24:57.477Z,98080.88
2023-02-19T05:27:23.956Z,98074.75
2023-02-19T05:29:50.460Z,98077.00
2023-02-19T05:32:17.028Z,98079.81
2023-02-19T05:34:43.548Z,98089.06
2023-02-19T05:37:10.073Z,98075.94
2023-02-19T05:39:36.549Z,98072.38
2023-02-19T05:42:03.141Z,98074.63
2023-02-19T05:44:29.658Z,98066.69
2023-02-19T05:46:56.122Z,98081.59
2023-02-19T05:49:22.640Z,98079.66
2023-02-19T05:51:52.281Z,98083.28
2023-02-19T05:54:18.774Z,98079.94
2023-02-19T05:56:45.260Z,98077.13
2023-02-19T05:59:18.516Z,98090.88
2023-02-19T06:01:45.041Z,98074.16
2023-02-19T06:04:11.882Z,98094.84
2023-02-19T06:06:38.732Z,98091.63
2023-02-19T06:09:05.500Z,98089.72
2023-02-19T06:11:32.045Z,98084.41
2023-02-19T06:13:58.643Z,98101.47
2023-02-19T06:16:25.247Z,98120.03
2023-02-19T06:18:51.807Z,98100.88
2023-02-19T06:21:18.545Z,98103.41
2023-02-19T06:23:45.168Z,98108.47
2023-02-19T06:26:15.624Z,98112.63
2023-02-19T06:28:42.252Z,98111.97
2023-02-19T06:31:09.419Z,98099.69
2023-02-19T06:33:36.444Z,98116.56
2023-02-19T06:36:03.863Z,98107.78
2023-02-19T06:38:30.585Z,98115.22
2023-02-19T06:41:01.091Z,98092.41
2023-02-19T06:43:27.746Z,98113.72
2023-02-19T06:45:54.748Z,98130.53
2023-02-19T06:48:21.214Z,98129.13
2023-02-19T06:50:48.876Z,98139.75
2023-02-19T06:53:15.402Z,98146.09
2023-02-19T06:55:41.881Z,98160.34
2023-02-19T06:58:08.503Z,98161.72
2023-02-19T07:00:35.212Z,98167.16
2023-02-19T07:03:03.335Z,98165.75
2023-02-19T07:05:31.082Z,98168.41
2023-02-19T07:07:57.587Z,98181.66
2023-02-19T07:10:24.081Z,98179.31
2023-02-19T07:12:50.676Z,98189.63
2023-02-19T07:15:17.221Z,98190.19
2023-02-19T07:17:43.704Z,98202.00
2023-02-19T07:20:10.452Z,98199.47
2023-02-19T07:22:36.923Z,98193.66
2023-02-19T07:25:03.401Z,98193.75
2023-02-19T07:27:29.941Z,98197.38
2023-02-19T07:29:56.465Z,98200.47
2023-02-19T07:32:22.955Z,98187.47
2023-02-19T07:34:49.497Z,98188.75
2023-02-19T07:37:16.023Z,98202.41
2023-02-19T07:39:42.480Z,98212.31
2023-02-19T07:42:09.006Z,98203.69
2023-02-19T07:44:35.505Z,98212.47
2023-02-19T07:47:02.012Z,98212.03
2023-02-19T07:49:28.780Z,98218.31
2023-02-19T07:51:55.593Z,98218.31
2023-02-19T07:54:22.098Z,98236.97
2023-02-19T07:56:48.876Z,98235.03
2023-02-19T07:59:15.857Z,98232.66
2023-02-19T08:02:01.179Z,98245.63
2023-02-19T08:04:27.713Z,98248.84
2023-02-19T08:06:54.275Z,98238.66
2023-02-19T08:09:20.752Z,98243.66
2023-02-19T08:12:05.725Z,98250.91
2023-02-19T08:14:32.285Z,98229.78
2023-02-19T08:16:59.105Z,98234.94
2023-02-19T08:19:25.588Z,98246.91
2023-02-19T08:21:53.445Z,98241.63
2023-02-19T08:24:19.973Z,98253.56
2023-02-19T08:26:46.449Z,98252.19
2023-02-19T08:29:13.006Z,98260.66
2023-02-19T08:31:39.660Z,98262.25
2023-02-19T08:34:06.245Z,98266.97
2023-02-19T08:36:32.834Z,98264.06
2023-02-19T08:38:59.729Z,98268.16
2023-02-19T08:41:26.244Z,98275.63
2023-02-19T08:43:52.783Z,98275.13
2023-02-19T08:46:19.400Z,98260.97
2023-02-19T08:48:45.965Z,98269.22
2023-02-19T08:51:12.821Z,98271.31
2023-02-19T08:53:40.175Z,98271.47
2023-02-19T08:56:07.041Z,98267.00
2023-02-19T08:58:33.691Z,98273.56
2023-02-19T09:01:00.280Z,98278.44
2023-02-19T09:03:26.804Z,98284.16
2023-02-19T09:05:53.312Z,98292.50
2023-02-19T09:08:19.904Z,98276.69
2023-02-19T09:10:46.403Z,98275.84
2023-02-19T09:13:12.921Z,98282.00
2023-02-19T09:15:39.487Z,98290.63
2023-02-19T09:18:06.157Z,98294.66
2023-02-19T09:20:32.676Z,98298.41
2023-02-19T09:22:59.278Z,98287.91
2023-02-19T09:25:25.838Z,98285.72
2023-02-19T09:27:56.073Z,98279.66
2023-02-19T09:30:22.954Z,98291.88
2023-02-19T09:32:49.491Z,98310.47
2023-02-19T09:35:16.106Z,98295.34
2023-02-19T09:37:42.571Z,98296.97
2023-02-19T09:40:09.692Z,98282.97
2023-02-19T09:42:36.508Z,98296.03
2023-02-19T09:45:03.284Z,98302.44
2023-02-19T09:47:30.593Z,98315.94
2023-02-19T09:49:59.899Z,98309.63
2023-02-19T09:52:38.702Z,98316.22
2023-02-19T09:55:17.818Z,98299.75
2023-02-19T09:57:44.749Z,98319.34
2023-02-19T10:00:11.368Z,98323.50
2023-02-19T10:02:37.926Z,98328.56
2023-02-19T10:05:09.854Z,98336.41
2023-02-19T10:07:43.362Z,98335.25
2023-02-19T10:10:21.795Z,98348.09
2023-02-19T10:12:50.595Z,98345.28
2023-02-19T10:15:19.405Z,98341.28
2023-02-19T10:17:45.897Z,98351.34
2023-02-19T10:20:16.257Z,98349.16
2023-02-19T10:22:42.746Z,98346.44
2023-02-19T10:25:13.670Z,98355.78
2023-02-19T10:27:40.231Z,98361.69
2023-02-19T10:30:07.310Z,98350.25
2023-02-19T10:32:33.832Z,98349.09
2023-02-19T10:35:16.530Z,98357.50
2023-02-19T10:37:47.436Z,98348.56
2023-02-19T10:40:25.660Z,98360.63
2023-02-19T10:43:02.890Z,98369.94
2023-02-19T10:45:29.334Z,98363.13
2023-02-19T10:47:55.813Z,98369.22
2023-02-19T10:50:27.967Z,98362.31
2023-02-19T10:52:55.919Z,98363.41
2023-02-19T10:55:28.853Z,98376.63
2023-02-19T10:57:56.205Z,98369.94
2023-02-19T11:00:26.841Z,98376.91
2023-02-19T11:03:15.363Z,98371.38
2023-02-19T11:05:51.225Z,98361.31
2023-02-19T11:08:21.777Z,98373.97
2023-02-19T11:10:48.353Z,98381.56
2023-02-19T11:13:16.681Z,98373.88
2023-02-19T11:15:43.200Z,98366.03
2023-02-19T11:18:12.476Z,98370.66
2023-02-19T11:20:59.063Z,98370.53
2023-02-19T11:23:34.136Z,98370.53
2023-02-19T11:26:02.907Z,98364.41
2023-02-19T11:28:34.056Z,98372.25
2023-02-19T11:31:18.974Z,98370.28
2023-02-19T11:34:09.861Z,98350.41
2023-02-19T11:36:37.251Z,98363.31
2023-02-19T11:39:28.930Z,98365.81
2023-02-19T11:42:13.680Z,98354.28
2023-02-19T11:45:01.510Z,98366.28
2023-02-19T11:47:58.154Z,98374.19
2023-02-19T11:50:38.433Z,98364.22
2023-02-19T11:53:28.933Z,98364.63
2023-02-19T11:56:14.033Z,98364.03
2023-02-19T11:59:00.804Z,98355.72
2023-02-19T12:01:30.587Z,98361.03
2023-02-19T12:04:08.953Z,98368.34
2023-02-19T12:06:44.204Z,98380.97
2023-02-19T12:09:16.539Z,98375.50
2023-02-19T12:12:11.028Z,98361.38
2023-02-19T12:14:56.491Z,98394.72
2023-02-19T12:17:57.296Z,98395.22
2023-02-19T12:20:35.417Z,98379.97
2023-02-19T12:23:16.885Z,98384.31
2023-02-19T12:25:54.814Z,98392.66
2023-02-19T12:28:34.732Z,98369.84
2023-02-19T12:31:20.224Z,98383.25
2023-02-19T12:34:31.239Z,98391.38
2023-02-19T12:37:17.956Z,98387.81
2023-02-19T12:39:50.406Z,98389.38
2023-02-19T12:42:35.030Z,98391.25
2023-02-19T12:45:20.455Z,98384.28
2023-02-19T12:48:02.190Z,98376.13
2023-02-19T12:50:28.668Z,98383.44
2023-02-19T12:53:01.747Z,98400.72
2023-02-19T12:55:32.855Z,98397.50
2023-02-19T12:58:01.363Z,98400.25
2023-02-19T13:00:39.660Z,98404.75
2023-02-19T13:03:11.806Z,98395.66
2023-02-19T13:05:46.691Z,98393.75
2023-02-19T13:08:27.158Z,98410.25
2023-02-19T13:10:58.033Z,98390.22
2023-02-19T13:13:34.965Z,98404.91
2023-02-19T13:16:15.042Z,98394.06
2023-02-19T13:18:57.078Z,98401.84
2023-02-19T13:21:43.832Z,98387.44
2023-02-19T13:24:16.860Z,98378.53
2023-02-19T13:27:23.898Z,98398.75
2023-02-19T13:30:15.887Z,98404.63
2023-02-19T13:32:54.459Z,98396.56
2023-02-19T13:35:39.361Z,98385.19
2023-02-19T13:38:07.693Z,98375.31
2023-02-19T13:40:35.954Z,98377.00
2023-02-19T13:43:04.268Z,98370.41
2023-02-19T13:45:41.470Z,98371.59
2023-02-19T13:48:27.820Z,98378.44
2023-02-19T13:51:12.670Z,98363.91
2023-02-19T13:53:45.066Z,98368.66
2023-02-19T13:56:29.728Z,98374.50
2023-02-19T13:59:01.463Z,98364.28
2023-02-19T14:01:56.954Z,98367.84
2023-02-19T14:04:32.213Z,98377.13
2023-02-19T14:07:04.972Z,98370.03
2023-02-19T14:09:37.223Z,98359.13
2023-02-19T14:12:15.468Z,98367.31
2023-02-19T14:14:43.003Z,98366.28
2023-02-19T14:17:09.413Z,98369.50
2023-02-19T14:19:41.762Z,98375.00
2023-02-19T14:22:45.266Z,98380.78
2023-02-19T14:25:26.752Z,98395.38
2023-02-19T14:28:14.934Z,98384.56
2023-02-19T14:31:21.092Z,98401.91
2023-02-19T14:33:52.812Z,98401.84
2023-02-19T14:36:25.181Z,98385.19
2023-02-19T14:38:58.989Z,98387.34
2023-02-19T14:41:25.981Z,98401.63
2023-02-19T14:43:53.583Z,98405.34
2023-02-19T14:46:39.730Z,98407.59
2023-02-19T14:49:19.306Z,98405.19
2023-02-19T14:51:48.253Z,98403.44
2023-02-19T14:54:20.621Z,98422.66
2023-02-19T14:56:48.661Z,98422.28
2023-02-19T14:59:25.202Z,98425.25
2023-02-19T15:02:21.029Z,98436.72
2023-02-19T15:04:47.588Z,98436.69
2023-02-19T15:07:26.709Z,98449.81
2023-02-19T15:09:54.555Z,98446.78
2023-02-19T15:12:25.475Z,98437.31
2023-02-19T15:14:55.362Z,98450.97
2023-02-19T15:17:29.602Z,98448.88
2023-02-19T15:19:56.491Z,98461.41
2023-02-19T15:22:24.302Z,98470.31
2023-02-19T15:24:50.798Z,98470.13
2023-02-19T15:27:21.912Z,98481.66
2023-02-19T15:29:51.715Z,98473.31
2023-02-19T15:32:22.689Z,98477.56
2023-02-19T15:35:03.054Z,98486.75
2023-02-19T15:37:31.406Z,98478.81
2023-02-19T15:39:59.488Z,98475.94
2023-02-19T15:42:28.532Z,98466.72
2023-02-19T15:44:59.375Z,98477.63
2023-02-19T15:47:38.243Z,98483.75
2023-02-19T15:50:08.627Z,98483.09
2023-02-19T15:52:41.726Z,98488.25
2023-02-19T15:55:39.632Z,98518.09
2023-02-19T15:58:30.538Z,98504.44
2023-02-19T16:00:59.155Z,98495.47
2023-02-19T16:03:26.388Z,98515.00
2023-02-19T16:06:16.226Z,98506.03
2023-02-19T16:08:44.011Z,98494.56
2023-02-19T16:11:29.863Z,98512.31
2023-02-19T16:14:15.926Z,98509.50
2023-02-19T16:16:42.516Z,98515.47
2023-02-19T16:19:09.791Z,98524.41
2023-02-19T16:21:36.267Z,98524.69
2023-02-19T16:24:13.405Z,98537.22
2023-02-19T16:26:40.754Z,98538.75
2023-02-19T16:29:16.967Z,98543.31
2023-02-19T16:31:57.468Z,98547.88
2023-02-19T16:34:40.909Z,98553.84
2023-02-19T16:37:30.514Z,98553.66
2023-02-19T16:40:20.266Z,98567.44
2023-02-19T16:42:49.881Z,98561.84
2023-02-19T16:45:16.869Z,98554.13
2023-02-19T16:47:48.349Z,98562.47
2023-02-19T16:50:15.868Z,98561.94
2023-02-19T16:52:54.687Z,98558.50
2023-02-19T16:55:21.197Z,98554.00
2023-02-19T16:57:47.758Z,98552.56
2023-02-19T17:00:22.091Z,98564.06
2023-02-19T17:02:50.044Z,98565.94
2023-02-19T17:05:16.891Z,98568.00
2023-02-19T17:07:43.558Z,98574.06
2023-02-19T17:10:17.408Z,98589.00
2023-02-19T17:12:43.915Z,98587.38
2023-02-19T17:15:11.485Z,98591.03
2023-02-19T17:17:38.045Z,98600.38
2023-02-19T17:20:24.054Z,98594.91
2023-02-19T17:22:50.637Z,98605.28
2023-02-19T17:25:17.180Z,98609.91
2023-02-19T17:27:43.692Z,98613.50
2023-02-19T17:30:12.257Z,98615.47
2023-02-19T17:32:38.798Z,98619.31
2023-02-19T17:35:05.720Z,98614.66
2023-02-19T17:37:32.250Z,98615.91
2023-02-19T17:39:58.746Z,98624.94
2023-02-19T17:42:25.904Z,98630.22
2023-02-19T17:44:53.522Z,98631.06
2023-02-19T17:47:21.249Z,98630.47
2023-02-19T17:49:47.861Z,98647.69
2023-02-19T17:52:17.493Z,98652.22
2023-02-19T17:54:44.105Z,98657.91
2023-02-19T17:57:10.684Z,98657.66
2023-02-19T17:59:37.159Z,98666.81
2023-02-19T18:02:03.729Z,98663.94
2023-02-19T18:04:30.272Z,98672.19
2023-02-19T18:06:56.770Z,98664.16
2023-02-19T18:09:23.390Z,98670.06
2023-02-19T18:11:50.000Z,98670.81
2023-02-19T18:14:16.488Z,98685.66
2023-02-19T18:16:49.756Z,98687.91
2023-02-19T18:19:17.030Z,98691.25
2023-02-19T18:21:43.543Z,98692.78
2023-02-19T18:24:10.079Z,98691.56
2023-02-19T18:26:36.770Z,98701.72
2023-02-19T18:29:03.283Z,98694.03
2023-02-19T18:31:32.614Z,98692.34
2023-02-19T18:33:59.409Z,98702.47
2023-02-19T18:36:26.060Z,98701.25
2023-02-19T18:38:52.558Z,98711.31
2023-02-19T18:41:21.018Z,98716.81
2023-02-19T18:43:48.196Z,98713.97
2023-02-19T18:46:14.768Z,98721.22
2023-02-19T18:48:41.548Z,98734.16
2023-02-19T18:51:11.561Z,98715.16
2023-02-19T18:53:38.216Z,98720.69
2023-02-19T18:56:05.487Z,98725.22
2023-02-19T18:58:32.024Z,98721.38
2023-02-19T19:00:59.430Z,98727.66
2023-02-19T19:03:26.067Z,98717.53
2023-02-19T19:05:52.677Z,98721.44
2023-02-19T19:08:19.141Z,98727.44
2023-02-19T19:10:45.634Z,98722.13
2023-02-19T19:13:12.110Z,98723.25
2023-02-19T19:15:41.236Z,98728.25
2023-02-19T19:18:08.446Z,98730.00
2023-02-19T19:20:34.912Z,98721.81
2023-02-19T19:23:01.406Z,98720.63
2023-02-19T19:25:28.247Z,98715.59
2023-02-19T19:27:54.860Z,98713.88
2023-02-19T19:30:21.523Z,98709.94
2023-02-19T19:32:49.575Z,98708.19
2023-02-19T19:35:19.596Z,98728.16
2023-02-19T19:37:46.251Z,98717.44
2023-02-19T19:40:13.073Z,98724.16
2023-02-19T19:42:39.666Z,98725.88
2023-02-19T19:45:06.697Z,98723.44
2023-02-19T19:47:33.301Z,98722.94
2023-02-19T19:49:59.869Z,98718.50
2023-02-19T19:52:26.345Z,98721.91
2023-02-19T19:54:54.118Z,98720.47
2023-02-19T19:57:20.655Z,98725.88
2023-02-19T19:59:51.211Z,98733.75
2023-02-19T20:02:18.417Z,98728.47
2023-02-19T20:04:44.946Z,98741.19
2023-02-19T20:07:11.467Z,98751.03
2023-02-19T20:09:37.969Z,98755.56
2023-02-19T20:12:04.635Z,98760.16
2023-02-19T20:14:31.137Z,98763.97
2023-02-19T20:16:57.683Z,98763.22
2023-02-19T20:19:24.217Z,98764.19
2023-02-19T20:21:53.918Z,98773.81
2023-02-19T20:24:25.138Z,98765.28
2023-02-19T20:26:53.274Z,98761.94
2023-02-19T20:29:19.831Z,98774.09
2023-02-19T20:31:49.804Z,98774.09
2023-02-19T20:34:16.354Z,98764.25
2023-02-19T20:36:43.932Z,98758.22
2023-02-19T20:39:10.654Z,98781.31
2023-02-19T20:41:37.155Z,98774.56
2023-02-19T20:44:03.798Z,98778.19
2023-02-19T20:46:30.393Z,98774.00
2023-02-19T20:48:57.108Z,98757.75
2023-02-19T20:51:23.803Z,98779.69
2023-02-19T20:53:50.309Z,98779.41
2023-02-19T20:56:16.814Z,98776.75
2023-02-19T20:58:43.329Z,98785.44
2023-02-19T21:01:11.713Z,98784.94
2023-02-19T21:03:38.224Z,98779.38
2023-02-19T21:06:04.800Z,98789.72
2023-02-19T21:08:31.321Z,98784.09
2023-02-19T21:10:57.818Z,98776.28
2023-02-19T21:13:24.368Z,98784.69
2023-02-19T21:15:51.018Z,98755.00
2023-02-19T21:18:19.808Z,98790.22
2023-02-19T21:20:46.474Z,98772.66
2023-02-19T21:23:13.936Z,98770.38
2023-02-19T21:25:40.411Z,98781.22
2023-02-19T21:28:09.062Z,98770.50
2023-02-19T21:30:36.028Z,98767.78
2023-02-19T21:33:02.961Z,98768.63
2023-02-19T21:35:29.450Z,98767.91
2023-02-19T21:37:56.257Z,98766.34
2023-02-19T21:40:23.406Z,98772.22
2023-02-19T21:42:49.910Z,98772.50
2023-02-19T21:45:16.568Z,98765.25
2023-02-19T21:47:43.589Z,98776.44
2023-02-19T21:50:10.346Z,98776.09
2023-02-19T21:52:36.882Z,98790.00
2023-02-19T21:55:03.572Z,98794.31
2023-02-19T21:57:30.153Z,98791.22
2023-02-19T21:59:56.737Z,98789.03
2023-02-19T22:02:24.285Z,98794.09
2023-02-19T22:04:54.561Z,98779.22
2023-02-19T22:07:21.703Z,98790.72
2023-02-19T22:09:49.522Z,98792.16
2023-02-19T22:12:16.679Z,98795.19
2023-02-19T22:14:43.211Z,98796.03
2023-02-19T22:17:09.679Z,98785.69
2023-02-19T22:19:36.266Z,98797.47
2023-02-19T22:22:02.849Z,98805.28
2023-02-19T22:24:29.324Z,98797.69
2023-02-19T22:26:56.386Z,98799.88
2023-02-19T22:29:22.962Z,98798.91
2023-02-19T22:31:49.532Z,98796.78
2023-02-19T22:34:16.250Z,98789.22
2023-02-19T22:36:43.155Z,98806.84
2023-02-19T22:39:19.083Z,98812.91
2023-02-19T22:41:45.832Z,98818.19
2023-02-19T22:44:12.350Z,98808.44
2023-02-19T22:46:38.853Z,98809.28
2023-02-19T22:49:05.994Z,98817.34
2023-02-19T22:51:32.775Z,98818.19
2023-02-19T22:53:59.737Z,98827.09
2023-02-19T22:56:27.201Z,98825.44
2023-02-19T22:58:54.497Z,98824.00
2023-02-19T23:01:21.169Z,98794.44
2023-02-19T23:03:55.569Z,98808.84
2023-02-19T23:06:24.311Z,98819.19
2023-02-19T23:08:51.378Z,98827.72
2023-02-19T23:11:25.301Z,98821.38
2023-02-19T23:13:51.871Z,98817.03
2023-02-19T23:16:18.438Z,98816.34
2023-02-19T23:18:45.044Z,98807.47
2023-02-19T23:21:11.595Z,98808.16
2023-02-19T23:23:40.670Z,98811.03
2023-02-19T23:26:07.897Z,98809.13
2023-02-19T23:28:34.432Z,98806.59
2023-02-19T23:31:00.987Z,98810.81
2023-02-19T23:33:27.612Z,98800.22
2023-02-19T23:35:54.091Z,98812.50
2023-02-19T23:38:20.665Z,98820.22
2023-02-19T23:40:47.274Z,98826.69
2023-02-19T23:43:13.755Z,98812.88
2023-02-19T23:45:40.319Z,98794.00
2023-02-19T23:48:07.062Z,98820.69
2023-02-19T23:50:33.540Z,98805.75
2023-02-19T23:53:00.179Z,98806.00
2023-02-19T23:55:26.718Z,98806.25
2023-02-19T23:57:53.566Z,98803.34
